createdAt,value
2022-10-18T00:00:14.123Z,2.00
2022-10-18T00:03:15.760Z,2.20
2022-10-18T00:06:17.358Z,2.03
2022-10-18T00:09:18.953Z,1.98
2022-10-18T00:12:20.727Z,2.28
2022-10-18T00:15:22.529Z,2.10
2022-10-18T00:18:24.644Z,2.10
2022-10-18T00:21:26.924Z,2.25
2022-10-18T00:24:28.523Z,2.22
2022-10-18T00:27:30.703Z,2.50
2022-10-18T00:30:32.664Z,2.30
2022-10-18T00:33:34.256Z,2.00
2022-10-18T00:36:35.919Z,2.05
2022-10-18T00:39:37.557Z,2.40
2022-10-18T00:42:39.168Z,2.10
2022-10-18T00:45:40.954Z,2.25
2022-10-18T00:48:42.695Z,2.20
2022-10-18T00:52:16.972Z,2.03
2022-10-18T00:55:18.893Z,2.10
2022-10-18T00:58:20.524Z,2.20
2022-10-18T01:01:24.527Z,2.30
2022-10-18T01:04:29.238Z,2.15
2022-10-18T01:08:00.003Z,2.50
2022-10-18T01:11:45.175Z,2.58
2022-10-18T01:15:03.625Z,2.22
2022-10-18T01:18:24.169Z,2.25
2022-10-18T01:21:55.373Z,2.60
2022-10-18T01:25:00.052Z,2.25
2022-10-18T01:28:52.960Z,2.15
2022-10-18T01:32:01.512Z,2.35
2022-10-18T01:35:07.548Z,2.65
2022-10-18T01:38:14.070Z,2.30
2022-10-18T01:41:19.330Z,2.20
2022-10-18T01:44:27.115Z,2.20
2022-10-18T01:47:29.266Z,2.17
2022-10-18T01:50:33.947Z,2.28
2022-10-18T01:53:35.798Z,2.30
2022-10-18T01:56:46.914Z,2.70
2022-10-18T02:00:03.944Z,2.70
2022-10-18T02:03:28.931Z,2.47
2022-10-18T02:06:38.496Z,2.20
2022-10-18T02:09:50.619Z,2.50
2022-10-18T02:12:54.771Z,2.15
2022-10-18T02:16:01.637Z,2.40
2022-10-18T02:19:14.485Z,2.30
2022-10-18T02:22:17.495Z,2.38
2022-10-18T02:25:23.885Z,2.60
2022-10-18T02:28:29.306Z,2.60
2022-10-18T02:31:46.459Z,2.45
2022-10-18T02:35:13.127Z,2.50
2022-10-18T02:38:17.839Z,2.60
2022-10-18T02:41:25.023Z,2.50
2022-10-18T02:44:26.808Z,2.30
2022-10-18T02:47:28.594Z,2.35
2022-10-18T02:50:30.346Z,2.83
2022-10-18T02:53:32.029Z,2.80
2022-10-18T02:56:33.760Z,2.40
2022-10-18T02:59:35.471Z,2.60
2022-10-18T03:02:37.090Z,2.72
2022-10-18T03:05:38.648Z,2.60
2022-10-18T03:08:40.381Z,2.92
2022-10-18T03:11:42.036Z,2.45
2022-10-18T03:14:43.728Z,2.55
2022-10-18T03:17:45.344Z,2.70
2022-10-18T03:20:47.081Z,2.67
2022-10-18T03:23:48.715Z,2.63
2022-10-18T03:26:50.391Z,2.55
2022-10-18T03:29:52.002Z,2.45
2022-10-18T03:32:54.341Z,2.30
2022-10-18T03:35:56.022Z,2.35
2022-10-18T03:38:57.645Z,2.67
2022-10-18T03:41:59.238Z,2.85
2022-10-18T03:45:00.837Z,2.70
2022-10-18T03:48:02.529Z,2.60
2022-10-18T03:51:04.210Z,2.63
2022-10-18T03:54:05.899Z,2.85
2022-10-18T03:57:07.539Z,2.70
2022-10-18T04:00:09.769Z,3.00
2022-10-18T04:03:14.198Z,5.32
2022-10-18T04:06:15.837Z,6.63
2022-10-18T04:09:17.886Z,3.35
2022-10-18T04:12:19.502Z,3.08
2022-10-18T04:15:21.331Z,2.90
2022-10-18T04:18:22.946Z,2.88
2022-10-18T04:21:24.592Z,2.80
2022-10-18T04:24:26.249Z,3.08
2022-10-18T04:27:27.848Z,2.60
2022-10-18T04:30:29.558Z,2.60
2022-10-18T04:33:31.192Z,2.75
2022-10-18T04:36:32.891Z,2.65
2022-10-18T04:39:34.490Z,2.72
2022-10-18T04:42:36.186Z,2.90
2022-10-18T04:45:37.871Z,2.78
2022-10-18T04:48:39.600Z,2.60
2022-10-18T04:51:41.289Z,2.75
2022-10-18T04:54:42.974Z,2.40
2022-10-18T04:57:44.583Z,2.47
2022-10-18T05:00:47.833Z,2.50
2022-10-18T05:03:54.147Z,2.55
2022-10-18T05:06:55.755Z,2.50
2022-10-18T05:09:57.411Z,2.55
2022-10-18T05:12:59.049Z,2.55
2022-10-18T05:16:00.911Z,2.70
2022-10-18T05:19:04.689Z,2.53
2022-10-18T05:22:06.613Z,2.50
2022-10-18T05:25:08.872Z,2.40
2022-10-18T05:28:21.113Z,2.33
2022-10-18T05:31:32.600Z,2.83
2022-10-18T05:34:34.326Z,2.83
2022-10-18T05:37:35.906Z,2.88
2022-10-18T05:40:40.594Z,3.10
2022-10-18T05:43:42.266Z,2.90
2022-10-18T05:46:43.975Z,2.65
2022-10-18T05:49:45.634Z,2.60
2022-10-18T05:52:47.191Z,2.40
2022-10-18T05:55:48.792Z,2.58
2022-10-18T05:58:51.717Z,2.80
2022-10-18T06:01:53.325Z,2.55
2022-10-18T06:04:54.923Z,2.75
2022-10-18T06:07:57.174Z,2.90
2022-10-18T06:10:59.163Z,2.92
2022-10-18T06:14:01.936Z,2.70
2022-10-18T06:17:04.197Z,2.95
2022-10-18T06:20:07.423Z,2.55
2022-10-18T06:23:09.032Z,2.67
2022-10-18T06:26:11.879Z,2.60
2022-10-18T06:29:14.032Z,2.80
2022-10-18T06:32:15.993Z,3.63
2022-10-18T06:35:17.572Z,2.80
2022-10-18T06:38:19.172Z,2.83
2022-10-18T06:41:22.353Z,3.63
2022-10-18T06:44:26.618Z,3.03
2022-10-18T06:47:28.246Z,2.97
2022-10-18T06:50:29.857Z,2.70
2022-10-18T06:53:40.754Z,3.03
2022-10-18T06:56:46.084Z,2.72
2022-10-18T06:59:47.753Z,3.08
2022-10-18T07:02:49.392Z,2.70
2022-10-18T07:05:51.161Z,3.13
2022-10-18T07:08:54.223Z,2.50
2022-10-18T07:11:56.042Z,3.10
2022-10-18T07:14:57.717Z,2.67
2022-10-18T07:17:59.349Z,2.75
2022-10-18T07:21:12.763Z,3.03
2022-10-18T07:24:14.474Z,2.85
2022-10-18T07:27:16.113Z,2.72
2022-10-18T07:30:17.839Z,2.88
2022-10-18T07:33:20.742Z,2.83
2022-10-18T07:36:22.472Z,3.05
2022-10-18T07:39:24.110Z,2.55
2022-10-18T07:42:26.064Z,2.60
2022-10-18T07:45:27.714Z,2.67
2022-10-18T07:48:29.620Z,2.60
2022-10-18T07:51:32.784Z,2.88
2022-10-18T07:54:34.387Z,2.75
2022-10-18T07:57:35.942Z,3.10
2022-10-18T08:00:37.875Z,3.30
2022-10-18T08:03:40.506Z,4.30
2022-10-18T08:06:42.215Z,4.00
2022-10-18T08:09:43.953Z,3.53
2022-10-18T08:12:45.544Z,3.63
2022-10-18T08:15:47.280Z,2.97
2022-10-18T08:18:48.980Z,3.15
2022-10-18T08:21:50.615Z,3.15
2022-10-18T08:24:52.191Z,3.60
2022-10-18T08:27:53.764Z,3.28
2022-10-18T08:33:57.554Z,3.40
2022-10-18T08:36:59.213Z,3.03
2022-10-18T08:40:01.396Z,3.08
2022-10-18T08:43:25.461Z,3.17
2022-10-18T08:46:28.382Z,3.40
2022-10-18T08:49:38.195Z,3.00
2022-10-18T08:53:20.456Z,2.97
2022-10-18T08:56:24.384Z,3.00
2022-10-18T08:59:29.113Z,2.92
2022-10-18T09:02:41.851Z,2.72
2022-10-18T09:05:49.542Z,2.90
2022-10-18T09:09:23.465Z,2.72
2022-10-18T09:13:16.199Z,2.70
2022-10-18T09:16:26.875Z,2.80
2022-10-18T09:19:55.003Z,2.88
2022-10-18T09:23:12.628Z,3.33
2022-10-18T09:26:24.827Z,2.80
2022-10-18T09:29:29.440Z,3.10
2022-10-18T09:32:49.533Z,3.00
2022-10-18T09:35:54.540Z,2.97
2022-10-18T09:39:02.155Z,3.00
2022-10-18T09:42:30.235Z,3.03
2022-10-18T09:45:39.096Z,2.90
2022-10-18T09:48:44.942Z,2.80
2022-10-18T09:51:49.255Z,2.80
2022-10-18T09:55:01.220Z,2.38
2022-10-18T09:58:06.067Z,2.70
2022-10-18T10:01:09.557Z,3.10
2022-10-18T10:04:11.154Z,2.80
2022-10-18T10:07:17.031Z,2.50
2022-10-18T10:13:27.991Z,2.53
2022-10-18T10:16:29.933Z,2.75
2022-10-18T10:19:34.748Z,2.33
2022-10-18T10:22:40.315Z,2.55
2022-10-18T10:25:43.337Z,2.40
2022-10-18T10:28:48.674Z,2.33
2022-10-18T10:32:04.017Z,2.03
2022-10-18T10:35:33.837Z,1.98
2022-10-18T10:38:37.043Z,2.08
2022-10-18T10:41:40.755Z,1.92
2022-10-18T10:44:55.118Z,2.00
2022-10-18T10:48:04.939Z,1.95
2022-10-18T10:51:09.745Z,2.00
2022-10-18T10:54:21.907Z,1.88
2022-10-18T10:57:28.025Z,2.10
2022-10-18T11:00:44.755Z,2.10
2022-10-18T11:03:48.524Z,1.83
2022-10-18T11:07:09.036Z,2.20
2022-10-18T11:10:10.599Z,1.90
2022-10-18T11:13:31.936Z,2.10
2022-10-18T11:16:39.234Z,2.20
2022-10-18T11:19:59.303Z,2.03
2022-10-18T11:23:02.661Z,2.22
2022-10-18T11:26:13.487Z,2.30
2022-10-18T11:29:45.351Z,1.90
2022-10-18T11:33:50.104Z,1.80
2022-10-18T11:37:25.926Z,1.83
2022-10-18T11:40:43.616Z,1.85
2022-10-18T11:44:18.942Z,2.10
2022-10-18T11:47:37.002Z,2.10
2022-10-18T11:50:41.451Z,2.00
2022-10-18T11:54:11.014Z,1.85
2022-10-18T11:57:50.551Z,1.80
2022-10-18T12:01:30.204Z,1.83
2022-10-18T12:04:53.198Z,1.90
2022-10-18T12:08:20.898Z,2.00
2022-10-18T12:11:28.109Z,1.90
2022-10-18T12:14:40.843Z,2.00
2022-10-18T12:17:50.395Z,1.70
2022-10-18T12:20:55.445Z,1.70
2022-10-18T12:24:06.130Z,1.80
2022-10-18T12:27:13.538Z,1.90
2022-10-18T12:30:25.137Z,1.60
2022-10-18T12:33:34.337Z,1.50
2022-10-18T12:37:08.796Z,1.73
2022-10-18T12:40:23.531Z,1.80
2022-10-18T12:43:27.714Z,1.67
2022-10-18T12:46:56.133Z,1.90
2022-10-18T12:50:04.386Z,1.77
2022-10-18T12:53:27.689Z,2.00
2022-10-18T12:56:29.247Z,2.10
2022-10-18T12:59:30.774Z,2.15
2022-10-18T13:02:33.498Z,2.10
2022-10-18T13:05:56.080Z,2.13
2022-10-18T13:09:18.429Z,2.08
2022-10-18T13:12:19.941Z,2.05
2022-10-18T13:15:49.954Z,2.00
2022-10-18T13:19:09.064Z,1.92
2022-10-18T13:22:32.206Z,1.83
2022-10-18T13:25:54.992Z,1.75
2022-10-18T13:29:28.386Z,1.75
2022-10-18T13:32:44.577Z,1.80
2022-10-18T13:36:04.008Z,1.83
2022-10-18T13:39:06.170Z,1.80
2022-10-18T13:42:31.576Z,1.90
2022-10-18T13:45:33.379Z,1.70
2022-10-18T13:48:35.035Z,2.00
2022-10-18T13:51:39.254Z,1.90
2022-10-18T13:54:50.925Z,1.88
2022-10-18T13:57:52.466Z,1.98
2022-10-18T14:01:21.971Z,2.00
2022-10-18T14:04:32.434Z,1.77
2022-10-18T14:07:35.437Z,1.80
2022-10-18T14:11:02.044Z,1.80
2022-10-18T14:14:11.631Z,1.63
2022-10-18T14:17:17.788Z,1.80
2022-10-18T14:20:29.885Z,1.75
2022-10-18T14:23:40.081Z,1.60
2022-10-18T14:26:41.684Z,2.00
2022-10-18T14:29:43.616Z,1.77
2022-10-18T14:32:51.570Z,1.75
2022-10-18T14:36:15.391Z,2.00
2022-10-18T14:39:24.059Z,2.30
2022-10-18T14:42:27.325Z,1.98
2022-10-18T14:45:28.984Z,1.88
2022-10-18T14:48:30.598Z,1.85
2022-10-18T14:51:36.676Z,1.80
2022-10-18T14:54:38.769Z,2.00
2022-10-18T14:57:40.508Z,1.85
2022-10-18T15:00:45.075Z,1.80
2022-10-18T15:03:50.187Z,2.25
2022-10-18T15:06:51.806Z,1.90
2022-10-18T15:09:55.056Z,1.83
2022-10-18T15:13:11.384Z,2.20
2022-10-18T15:16:20.597Z,2.08
2022-10-18T15:19:22.145Z,2.05
2022-10-18T15:22:31.697Z,2.20
2022-10-18T15:25:35.909Z,2.30
2022-10-18T15:28:50.106Z,2.28
2022-10-18T15:31:52.541Z,2.50
2022-10-18T15:34:54.782Z,2.63
2022-10-18T15:38:03.564Z,2.45
2022-10-18T15:41:36.896Z,2.40
2022-10-18T15:44:50.941Z,2.20
2022-10-18T15:48:14.014Z,2.78
2022-10-18T15:51:47.928Z,2.28
2022-10-18T15:54:49.551Z,2.65
2022-10-18T15:57:51.220Z,2.70
2022-10-18T16:00:59.098Z,2.42
2022-10-18T16:04:05.382Z,2.60
2022-10-18T16:07:07.111Z,2.60
2022-10-18T16:10:15.038Z,2.60
2022-10-18T16:13:17.880Z,2.70
2022-10-18T16:16:25.640Z,2.30
2022-10-18T16:19:27.266Z,2.22
2022-10-18T16:22:31.117Z,2.20
2022-10-18T16:25:35.105Z,2.50
2022-10-18T16:28:36.869Z,2.50
2022-10-18T16:31:38.465Z,2.90
2022-10-18T16:34:40.105Z,2.50
2022-10-18T16:37:42.270Z,2.60
2022-10-18T16:40:45.226Z,2.63
2022-10-18T16:43:49.526Z,2.60
2022-10-18T16:46:53.976Z,2.53
2022-10-18T16:50:01.518Z,2.42
2022-10-18T16:53:06.608Z,2.45
2022-10-18T16:56:18.100Z,2.80
2022-10-18T16:59:31.703Z,2.65
2022-10-18T17:02:33.484Z,2.38
2022-10-18T17:05:35.509Z,2.45
2022-10-18T17:08:37.186Z,2.40
2022-10-18T17:11:38.969Z,2.60
2022-10-18T17:14:40.664Z,2.90
2022-10-18T17:17:42.375Z,2.70
2022-10-18T17:20:45.049Z,2.60
2022-10-18T17:23:46.780Z,2.70
2022-10-18T17:26:48.460Z,2.90
2022-10-18T17:29:50.105Z,2.53
2022-10-18T17:32:51.742Z,2.60
2022-10-18T17:35:53.587Z,2.58
2022-10-18T17:38:55.849Z,2.75
2022-10-18T17:41:57.690Z,2.70
2022-10-18T17:44:59.420Z,2.83
2022-10-18T17:48:01.037Z,2.95
2022-10-18T17:51:10.068Z,3.70
2022-10-18T17:54:12.657Z,3.55
2022-10-18T17:57:14.289Z,3.35
2022-10-18T18:00:16.239Z,3.83
2022-10-18T18:03:17.871Z,3.05
2022-10-18T18:06:21.179Z,2.85
2022-10-18T18:09:23.407Z,2.90
2022-10-18T18:12:25.373Z,3.20
2022-10-18T18:15:27.200Z,2.67
2022-10-18T18:18:28.813Z,2.80
2022-10-18T18:21:30.720Z,2.78
2022-10-18T18:24:32.550Z,4.57
2022-10-18T18:27:34.187Z,3.47
2022-10-18T18:30:39.901Z,3.45
2022-10-18T18:33:42.250Z,3.00
2022-10-18T18:36:44.832Z,3.67
2022-10-18T18:39:46.478Z,3.47
2022-10-18T18:43:01.808Z,2.65
2022-10-18T18:46:10.872Z,2.50
2022-10-18T18:49:13.450Z,2.65
2022-10-18T18:52:15.182Z,4.82
2022-10-18T18:55:17.072Z,4.38
2022-10-18T18:58:18.949Z,3.40
2022-10-18T19:01:22.127Z,3.90
2022-10-18T19:04:23.802Z,2.67
2022-10-18T19:07:25.442Z,2.80
2022-10-18T19:10:27.659Z,2.70
2022-10-18T19:13:29.291Z,3.20
2022-10-18T19:16:38.728Z,2.60
2022-10-18T19:19:40.997Z,2.20
2022-10-18T19:22:42.680Z,2.65
2022-10-18T19:25:44.723Z,2.47
2022-10-18T19:28:46.550Z,2.38
2022-10-18T19:31:49.321Z,2.45
2022-10-18T19:34:52.237Z,2.13
2022-10-18T19:37:54.038Z,2.13
2022-10-18T19:40:55.978Z,2.17
2022-10-18T19:43:57.633Z,2.10
2022-10-18T19:46:59.883Z,2.15
2022-10-18T19:50:01.684Z,2.13
2022-10-18T19:53:03.801Z,2.13
2022-10-18T19:56:08.513Z,2.00
2022-10-18T19:59:11.981Z,2.30
2022-10-18T20:02:15.177Z,2.28
2022-10-18T20:05:17.149Z,2.25
2022-10-18T20:08:18.831Z,2.05
2022-10-18T20:11:24.490Z,2.20
2022-10-18T20:14:26.322Z,2.55
2022-10-18T20:17:28.321Z,2.33
2022-10-18T20:20:29.994Z,1.98
2022-10-18T20:23:32.628Z,2.10
2022-10-18T20:26:35.898Z,2.20
2022-10-18T20:29:37.741Z,2.10
2022-10-18T20:32:39.869Z,2.00
2022-10-18T20:35:41.970Z,2.25
2022-10-18T20:38:45.840Z,2.20
2022-10-18T20:41:49.513Z,2.28
2022-10-18T20:44:51.170Z,2.28
2022-10-18T20:47:52.899Z,2.15
2022-10-18T20:50:54.773Z,1.92
2022-10-18T20:53:56.791Z,1.83
2022-10-18T20:56:58.530Z,1.90
2022-10-18T21:00:00.221Z,2.10
2022-10-18T21:03:02.381Z,1.90
2022-10-18T21:06:18.568Z,2.10
2022-10-18T21:09:20.426Z,1.90
2022-10-18T21:12:22.271Z,1.73
2022-10-18T21:15:24.075Z,2.15
2022-10-18T21:18:26.739Z,1.92
2022-10-18T21:21:28.349Z,1.90
2022-10-18T21:24:30.613Z,1.80
2022-10-18T21:27:32.400Z,1.88
2022-10-18T21:30:34.120Z,1.88
2022-10-18T21:33:35.865Z,1.63
2022-10-18T21:36:37.687Z,1.80
2022-10-18T21:39:39.253Z,1.95
2022-10-18T21:42:40.887Z,1.65
2022-10-18T21:45:42.467Z,2.00
2022-10-18T21:48:46.420Z,2.00
2022-10-18T21:51:48.138Z,2.17
2022-10-18T21:54:49.787Z,2.30
2022-10-18T21:57:51.513Z,2.53
2022-10-18T22:00:53.160Z,2.22
2022-10-18T22:03:56.781Z,2.30
2022-10-18T22:06:59.522Z,2.30
2022-10-18T22:10:01.109Z,2.17
2022-10-18T22:13:02.783Z,1.98
2022-10-18T22:16:06.799Z,2.08
2022-10-18T22:19:08.641Z,2.28
2022-10-18T22:22:10.435Z,2.00
2022-10-18T22:25:12.044Z,2.10
2022-10-18T22:28:13.702Z,2.28
2022-10-18T22:31:23.348Z,2.05
2022-10-18T22:34:28.982Z,1.98
2022-10-18T22:37:30.744Z,2.03
2022-10-18T22:40:32.638Z,1.80
2022-10-18T22:43:35.210Z,2.25
2022-10-18T22:46:36.816Z,1.83
2022-10-18T22:49:39.201Z,2.22
2022-10-18T22:52:40.938Z,2.70
2022-10-18T22:55:42.533Z,2.92
2022-10-18T22:58:44.240Z,2.58
2022-10-18T23:01:45.901Z,3.30
2022-10-18T23:04:47.537Z,3.30
2022-10-18T23:07:49.505Z,3.10
2022-10-18T23:10:55.470Z,3.17
2022-10-18T23:13:57.176Z,3.10
2022-10-18T23:16:58.790Z,3.13
2022-10-18T23:20:00.359Z,2.95
2022-10-18T23:23:01.955Z,2.67
2022-10-18T23:26:06.262Z,3.10
2022-10-18T23:29:09.040Z,2.83
2022-10-18T23:32:10.741Z,2.42
2022-10-18T23:35:12.292Z,2.30
2022-10-18T23:38:13.924Z,2.65
2022-10-18T23:41:16.553Z,2.53
2022-10-18T23:44:18.132Z,2.58
2022-10-18T23:47:19.807Z,2.55
2022-10-18T23:50:21.402Z,2.30
2022-10-18T23:53:23.090Z,2.47
2022-10-18T23:56:24.705Z,2.40
2022-10-18T23:59:26.518Z,2.65
